sensor_id;sensor_type;location;lat;lon;timestamp;P1;durP1;ratioP1;P2;durP2;ratioP2
19111;SDS011;9688;51.906;8.376;2023-06-04T00:00:30;3.60;;;2.50;;
19111;SDS011;9688;51.906;8.376;2023-06-04T00:03:17;3.23;;;2.40;;
19111;SDS011;9688;51.906;8.376;2023-06-04T00:06:05;2.67;;;2.17;;
19111;SDS011;9688;51.906;8.376;2023-06-04T00:08:51;4.23;;;2.30;;
19111;SDS011;9688;51.906;8.376;2023-06-04T00:11:37;3.37;;;2.17;;
19111;SDS011;9688;51.906;8.376;2023-06-04T00:14:23;3.03;;;2.33;;
19111;SDS011;9688;51.906;8.376;2023-06-04T00:17:09;8.53;;;2.40;;
19111;SDS011;9688;51.906;8.376;2023-06-04T00:19:55;3.83;;;2.10;;
19111;SDS011;9688;51.906;8.376;2023-06-04T00:22:43;2.13;;;1.83;;
19111;SDS011;9688;51.906;8.376;2023-06-04T00:25:29;2.30;;;2.10;;
19111;SDS011;9688;51.906;8.376;2023-06-04T00:28:14;2.40;;;2.20;;
19111;SDS011;9688;51.906;8.376;2023-06-04T00:31:02;3.63;;;2.10;;
19111;SDS011;9688;51.906;8.376;2023-06-04T00:33:50;2.10;;;2.00;;
19111;SDS011;9688;51.906;8.376;2023-06-04T00:36:35;2.00;;;1.83;;
19111;SDS011;9688;51.906;8.376;2023-06-04T00:39:23;2.10;;;1.90;;
19111;SDS011;9688;51.906;8.376;2023-06-04T00:42:09;2.07;;;1.80;;
19111;SDS011;9688;51.906;8.376;2023-06-04T00:44:55;2.40;;;2.10;;
19111;SDS011;9688;51.906;8.376;2023-06-04T00:47:42;2.30;;;2.00;;
19111;SDS011;9688;51.906;8.376;2023-06-04T00:50:28;3.00;;;1.80;;
19111;SDS011;9688;51.906;8.376;2023-06-04T00:53:14;1.83;;;1.67;;
19111;SDS011;9688;51.906;8.376;2023-06-04T00:56:02;1.97;;;1.70;;
19111;SDS011;9688;51.906;8.376;2023-06-04T00:58:49;1.80;;;1.70;;
19111;SDS011;9688;51.906;8.376;2023-06-04T01:01:38;1.60;;;1.50;;
19111;SDS011;9688;51.906;8.376;2023-06-04T01:04:32;2.63;;;1.60;;
19111;SDS011;9688;51.906;8.376;2023-06-04T01:07:27;1.93;;;1.50;;
19111;SDS011;9688;51.906;8.376;2023-06-04T01:10:13;1.80;;;1.70;;
19111;SDS011;9688;51.906;8.376;2023-06-04T01:13:00;2.43;;;2.23;;
19111;SDS011;9688;51.906;8.376;2023-06-04T01:15:47;3.03;;;1.80;;
19111;SDS011;9688;51.906;8.376;2023-06-04T01:18:34;2.00;;;1.90;;
19111;SDS011;9688;51.906;8.376;2023-06-04T01:21:23;1.40;;;1.30;;
19111;SDS011;9688;51.906;8.376;2023-06-04T01:24:11;3.80;;;1.80;;
19111;SDS011;9688;51.906;8.376;2023-06-04T01:26:57;3.57;;;1.80;;
19111;SDS011;9688;51.906;8.376;2023-06-04T01:29:47;3.00;;;1.53;;
19111;SDS011;9688;51.906;8.376;2023-06-04T01:32:35;1.63;;;1.53;;
19111;SDS011;9688;51.906;8.376;2023-06-04T01:35:22;1.40;;;1.30;;
19111;SDS011;9688;51.906;8.376;2023-06-04T01:38:08;5.07;;;1.83;;
19111;SDS011;9688;51.906;8.376;2023-06-04T01:40:54;5.10;;;1.93;;
19111;SDS011;9688;51.906;8.376;2023-06-04T01:43:45;2.57;;;1.33;;
19111;SDS011;9688;51.906;8.376;2023-06-04T01:46:32;1.50;;;1.40;;
19111;SDS011;9688;51.906;8.376;2023-06-04T01:49:18;1.70;;;1.60;;
19111;SDS011;9688;51.906;8.376;2023-06-04T01:52:05;1.63;;;1.53;;
19111;SDS011;9688;51.906;8.376;2023-06-04T01:54:51;3.27;;;1.80;;
19111;SDS011;9688;51.906;8.376;2023-06-04T01:57:37;2.93;;;1.53;;
19111;SDS011;9688;51.906;8.376;2023-06-04T02:00:24;1.50;;;1.40;;
19111;SDS011;9688;51.906;8.376;2023-06-04T02:03:11;3.93;;;1.30;;
19111;SDS011;9688;51.906;8.376;2023-06-04T02:05:59;1.50;;;1.20;;
19111;SDS011;9688;51.906;8.376;2023-06-04T02:08:45;7.10;;;1.60;;
19111;SDS011;9688;51.906;8.376;2023-06-04T02:11:31;1.67;;;1.53;;
19111;SDS011;9688;51.906;8.376;2023-06-04T02:14:17;1.30;;;1.30;;
19111;SDS011;9688;51.906;8.376;2023-06-04T02:17:03;2.00;;;1.50;;
19111;SDS011;9688;51.906;8.376;2023-06-04T02:19:58;1.83;;;1.70;;
19111;SDS011;9688;51.906;8.376;2023-06-04T02:22:44;1.57;;;1.47;;
19111;SDS011;9688;51.906;8.376;2023-06-04T02:25:31;1.67;;;1.57;;
19111;SDS011;9688;51.906;8.376;2023-06-04T02:28:17;2.90;;;1.60;;
19111;SDS011;9688;51.906;8.376;2023-06-04T02:31:03;3.10;;;1.50;;
19111;SDS011;9688;51.906;8.376;2023-06-04T02:33:49;1.53;;;1.43;;
19111;SDS011;9688;51.906;8.376;2023-06-04T02:36:36;2.83;;;1.63;;
19111;SDS011;9688;51.906;8.376;2023-06-04T02:39:22;1.47;;;1.37;;
19111;SDS011;9688;51.906;8.376;2023-06-04T02:42:08;2.10;;;1.60;;
19111;SDS011;9688;51.906;8.376;2023-06-04T02:44:54;2.13;;;1.57;;
19111;SDS011;9688;51.906;8.376;2023-06-04T02:47:40;1.77;;;1.43;;
19111;SDS011;9688;51.906;8.376;2023-06-04T02:50:26;3.00;;;1.50;;
19111;SDS011;9688;51.906;8.376;2023-06-04T02:53:14;1.83;;;1.30;;
19111;SDS011;9688;51.906;8.376;2023-06-04T02:56:00;2.97;;;1.40;;
19111;SDS011;9688;51.906;8.376;2023-06-04T02:58:49;3.90;;;1.90;;
19111;SDS011;9688;51.906;8.376;2023-06-04T03:01:35;2.00;;;1.80;;
19111;SDS011;9688;51.906;8.376;2023-06-04T03:04:21;2.50;;;1.83;;
19111;SDS011;9688;51.906;8.376;2023-06-04T03:07:07;2.47;;;1.50;;
19111;SDS011;9688;51.906;8.376;2023-06-04T03:09:56;1.73;;;1.63;;
19111;SDS011;9688;51.906;8.376;2023-06-04T03:12:42;3.30;;;1.60;;
19111;SDS011;9688;51.906;8.376;2023-06-04T03:15:29;1.80;;;1.70;;
19111;SDS011;9688;51.906;8.376;2023-06-04T03:18:15;1.50;;;1.40;;
19111;SDS011;9688;51.906;8.376;2023-06-04T03:21:01;2.73;;;1.63;;
19111;SDS011;9688;51.906;8.376;2023-06-04T03:23:47;2.10;;;1.53;;
19111;SDS011;9688;51.906;8.376;2023-06-04T03:26:35;2.07;;;1.33;;
19111;SDS011;9688;51.906;8.376;2023-06-04T03:29:21;2.23;;;1.67;;
19111;SDS011;9688;51.906;8.376;2023-06-04T03:32:07;2.50;;;1.70;;
19111;SDS011;9688;51.906;8.376;2023-06-04T03:34:53;1.80;;;1.70;;
19111;SDS011;9688;51.906;8.376;2023-06-04T03:37:39;1.30;;;1.30;;
19111;SDS011;9688;51.906;8.376;2023-06-04T03:40:25;1.60;;;1.50;;
19111;SDS011;9688;51.906;8.376;2023-06-04T03:43:13;2.30;;;1.40;;
19111;SDS011;9688;51.906;8.376;2023-06-04T03:45:58;1.67;;;1.50;;
19111;SDS011;9688;51.906;8.376;2023-06-04T03:48:44;3.17;;;1.40;;
19111;SDS011;9688;51.906;8.376;2023-06-04T03:51:31;1.60;;;1.50;;
19111;SDS011;9688;51.906;8.376;2023-06-04T03:54:17;1.40;;;1.40;;
19111;SDS011;9688;51.906;8.376;2023-06-04T03:57:02;1.70;;;1.60;;
19111;SDS011;9688;51.906;8.376;2023-06-04T03:59:51;1.63;;;1.53;;
19111;SDS011;9688;51.906;8.376;2023-06-04T04:02:37;2.07;;;1.77;;
19111;SDS011;9688;51.906;8.376;2023-06-04T04:05:23;2.30;;;1.60;;
19111;SDS011;9688;51.906;8.376;2023-06-04T04:08:09;1.53;;;1.50;;
19111;SDS011;9688;51.906;8.376;2023-06-04T04:10:55;2.20;;;1.40;;
19111;SDS011;9688;51.906;8.376;2023-06-04T04:13:41;1.70;;;1.60;;
19111;SDS011;9688;51.906;8.376;2023-06-04T04:16:29;1.87;;;1.70;;
19111;SDS011;9688;51.906;8.376;2023-06-04T04:19:14;2.87;;;1.67;;
19111;SDS011;9688;51.906;8.376;2023-06-04T04:22:01;2.33;;;1.53;;
19111;SDS011;9688;51.906;8.376;2023-06-04T04:24:47;1.77;;;1.67;;
19111;SDS011;9688;51.906;8.376;2023-06-04T04:27:33;4.30;;;2.00;;
19111;SDS011;9688;51.906;8.376;2023-06-04T04:30:22;3.20;;;2.10;;
19111;SDS011;9688;51.906;8.376;2023-06-04T04:33:10;1.80;;;1.70;;
19111;SDS011;9688;51.906;8.376;2023-06-04T04:35:59;1.60;;;1.60;;
19111;SDS011;9688;51.906;8.376;2023-06-04T04:38:45;3.33;;;2.37;;
19111;SDS011;9688;51.906;8.376;2023-06-04T04:41:38;2.90;;;1.50;;
19111;SDS011;9688;51.906;8.376;2023-06-04T04:44:24;1.80;;;1.67;;
19111;SDS011;9688;51.906;8.376;2023-06-04T04:47:10;1.70;;;1.60;;
19111;SDS011;9688;51.906;8.376;2023-06-04T04:49:58;1.63;;;1.50;;
19111;SDS011;9688;51.906;8.376;2023-06-04T04:52:43;4.00;;;1.40;;
19111;SDS011;9688;51.906;8.376;2023-06-04T04:55:29;2.40;;;1.90;;
19111;SDS011;9688;51.906;8.376;2023-06-04T04:58:15;2.97;;;1.70;;
19111;SDS011;9688;51.906;8.376;2023-06-04T05:01:02;2.73;;;1.77;;
19111;SDS011;9688;51.906;8.376;2023-06-04T05:03:48;3.70;;;1.70;;
19111;SDS011;9688;51.906;8.376;2023-06-04T05:06:36;1.87;;;1.77;;
19111;SDS011;9688;51.906;8.376;2023-06-04T05:09:22;1.57;;;1.47;;
19111;SDS011;9688;51.906;8.376;2023-06-04T05:12:08;2.33;;;1.80;;
19111;SDS011;9688;51.906;8.376;2023-06-04T05:14:55;3.17;;;1.57;;
19111;SDS011;9688;51.906;8.376;2023-06-04T05:17:41;8.33;;;2.00;;
19111;SDS011;9688;51.906;8.376;2023-06-04T05:20:29;2.30;;;1.70;;
19111;SDS011;9688;51.906;8.376;2023-06-04T05:23:16;2.10;;;1.80;;
19111;SDS011;9688;51.906;8.376;2023-06-04T05:26:02;1.60;;;1.50;;
19111;SDS011;9688;51.906;8.376;2023-06-04T05:28:49;2.20;;;2.00;;
19111;SDS011;9688;51.906;8.376;2023-06-04T05:31:34;1.50;;;1.40;;
19111;SDS011;9688;51.906;8.376;2023-06-04T05:34:20;3.17;;;2.63;;
19111;SDS011;9688;51.906;8.376;2023-06-04T05:37:07;3.97;;;2.50;;
19111;SDS011;9688;51.906;8.376;2023-06-04T05:39:55;2.67;;;1.97;;
19111;SDS011;9688;51.906;8.376;2023-06-04T05:42:41;5.10;;;3.60;;
19111;SDS011;9688;51.906;8.376;2023-06-04T05:45:28;4.83;;;3.03;;
19111;SDS011;9688;51.906;8.376;2023-06-04T05:48:14;3.40;;;2.40;;
19111;SDS011;9688;51.906;8.376;2023-06-04T05:51:01;2.10;;;2.00;;
19111;SDS011;9688;51.906;8.376;2023-06-04T05:53:47;5.90;;;2.20;;
19111;SDS011;9688;51.906;8.376;2023-06-04T05:56:34;2.00;;;1.87;;
19111;SDS011;9688;51.906;8.376;2023-06-04T05:59:20;3.47;;;2.80;;
19111;SDS011;9688;51.906;8.376;2023-06-04T06:02:06;1.77;;;1.67;;
19111;SDS011;9688;51.906;8.376;2023-06-04T06:04:52;2.20;;;1.60;;
19111;SDS011;9688;51.906;8.376;2023-06-04T06:07:39;1.77;;;1.50;;
19111;SDS011;9688;51.906;8.376;2023-06-04T06:10:24;3.10;;;1.80;;
19111;SDS011;9688;51.906;8.376;2023-06-04T06:13:12;2.73;;;1.87;;
19111;SDS011;9688;51.906;8.376;2023-06-04T06:15:59;1.80;;;1.70;;
19111;SDS011;9688;51.906;8.376;2023-06-04T06:18:46;2.50;;;1.53;;
19111;SDS011;9688;51.906;8.376;2023-06-04T06:21:31;1.60;;;1.50;;
19111;SDS011;9688;51.906;8.376;2023-06-04T06:24:18;2.17;;;1.50;;
19111;SDS011;9688;51.906;8.376;2023-06-04T06:27:04;4.13;;;1.60;;
19111;SDS011;9688;51.906;8.376;2023-06-04T06:29:51;5.67;;;2.23;;
19111;SDS011;9688;51.906;8.376;2023-06-04T06:32:38;2.73;;;1.60;;
19111;SDS011;9688;51.906;8.376;2023-06-04T06:35:23;3.27;;;1.80;;
19111;SDS011;9688;51.906;8.376;2023-06-04T06:38:19;11.00;;;5.90;;
19111;SDS011;9688;51.906;8.376;2023-06-04T06:41:05;11.70;;;7.70;;
19111;SDS011;9688;51.906;8.376;2023-06-04T06:43:51;8.33;;;5.27;;
19111;SDS011;9688;51.906;8.376;2023-06-04T06:46:38;4.00;;;3.20;;
19111;SDS011;9688;51.906;8.376;2023-06-04T06:49:24;4.40;;;3.07;;
19111;SDS011;9688;51.906;8.376;2023-06-04T06:52:11;2.93;;;2.60;;
19111;SDS011;9688;51.906;8.376;2023-06-04T06:54:57;3.67;;;2.10;;
19111;SDS011;9688;51.906;8.376;2023-06-04T06:57:43;5.57;;;3.73;;
19111;SDS011;9688;51.906;8.376;2023-06-04T07:00:29;4.73;;;3.37;;
19111;SDS011;9688;51.906;8.376;2023-06-04T07:03:17;3.17;;;2.20;;
19111;SDS011;9688;51.906;8.376;2023-06-04T07:06:03;5.70;;;2.67;;
19111;SDS011;9688;51.906;8.376;2023-06-04T07:08:49;5.50;;;3.00;;
19111;SDS011;9688;51.906;8.376;2023-06-04T07:11:38;15.10;;;7.10;;
19111;SDS011;9688;51.906;8.376;2023-06-04T07:14:24;7.10;;;4.23;;
19111;SDS011;9688;51.906;8.376;2023-06-04T07:17:10;6.97;;;4.43;;
19111;SDS011;9688;51.906;8.376;2023-06-04T07:20:01;3.23;;;2.77;;
19111;SDS011;9688;51.906;8.376;2023-06-04T07:22:47;8.87;;;4.90;;
19111;SDS011;9688;51.906;8.376;2023-06-04T07:25:34;9.67;;;4.30;;
19111;SDS011;9688;51.906;8.376;2023-06-04T07:28:22;8.57;;;3.60;;
19111;SDS011;9688;51.906;8.376;2023-06-04T07:31:08;9.63;;;3.90;;
19111;SDS011;9688;51.906;8.376;2023-06-04T07:33:54;4.57;;;3.20;;
19111;SDS011;9688;51.906;8.376;2023-06-04T07:36:41;3.13;;;2.13;;
19111;SDS011;9688;51.906;8.376;2023-06-04T07:39:27;3.37;;;2.23;;
19111;SDS011;9688;51.906;8.376;2023-06-04T07:42:13;6.90;;;2.67;;
19111;SDS011;9688;51.906;8.376;2023-06-04T07:44:59;14.07;;;4.03;;
19111;SDS011;9688;51.906;8.376;2023-06-04T07:47:45;7.40;;;3.90;;
19111;SDS011;9688;51.906;8.376;2023-06-04T07:50:31;11.73;;;6.30;;
19111;SDS011;9688;51.906;8.376;2023-06-04T07:53:19;4.63;;;3.07;;
19111;SDS011;9688;51.906;8.376;2023-06-04T07:56:05;6.77;;;3.80;;
19111;SDS011;9688;51.906;8.376;2023-06-04T07:58:51;6.60;;;3.10;;
19111;SDS011;9688;51.906;8.376;2023-06-04T08:01:37;5.80;;;2.10;;
19111;SDS011;9688;51.906;8.376;2023-06-04T08:04:23;5.03;;;2.60;;
19111;SDS011;9688;51.906;8.376;2023-06-04T08:07:09;4.33;;;2.80;;
19111;SDS011;9688;51.906;8.376;2023-06-04T08:09:56;2.97;;;2.20;;
19111;SDS011;9688;51.906;8.376;2023-06-04T08:12:42;3.00;;;2.47;;
19111;SDS011;9688;51.906;8.376;2023-06-04T08:15:29;5.93;;;3.10;;
19111;SDS011;9688;51.906;8.376;2023-06-04T08:18:17;6.83;;;3.10;;
19111;SDS011;9688;51.906;8.376;2023-06-04T08:21:03;13.27;;;6.73;;
19111;SDS011;9688;51.906;8.376;2023-06-04T08:23:50;7.60;;;4.00;;
19111;SDS011;9688;51.906;8.376;2023-06-04T08:26:37;8.40;;;3.63;;
19111;SDS011;9688;51.906;8.376;2023-06-04T08:29:23;4.40;;;2.90;;
19111;SDS011;9688;51.906;8.376;2023-06-04T08:32:09;3.37;;;2.73;;
19111;SDS011;9688;51.906;8.376;2023-06-04T08:34:56;4.07;;;2.30;;
19111;SDS011;9688;51.906;8.376;2023-06-04T08:37:42;3.43;;;2.47;;
19111;SDS011;9688;51.906;8.376;2023-06-04T08:40:29;4.37;;;2.00;;
19111;SDS011;9688;51.906;8.376;2023-06-04T08:43:16;5.93;;;2.50;;
19111;SDS011;9688;51.906;8.376;2023-06-04T08:46:03;3.10;;;2.03;;
19111;SDS011;9688;51.906;8.376;2023-06-04T08:48:53;8.40;;;1.90;;
19111;SDS011;9688;51.906;8.376;2023-06-04T08:51:40;2.23;;;2.03;;
19111;SDS011;9688;51.906;8.376;2023-06-04T08:54:27;3.47;;;2.10;;
19111;SDS011;9688;51.906;8.376;2023-06-04T08:57:14;3.10;;;1.80;;
19111;SDS011;9688;51.906;8.376;2023-06-04T09:00:02;2.97;;;2.03;;
19111;SDS011;9688;51.906;8.376;2023-06-04T09:02:51;5.37;;;1.97;;
19111;SDS011;9688;51.906;8.376;2023-06-04T09:05:38;6.60;;;2.20;;
19111;SDS011;9688;51.906;8.376;2023-06-04T09:08:26;4.55;;;2.10;;
19111;SDS011;9688;51.906;8.376;2023-06-04T09:11:16;3.67;;;2.00;;
19111;SDS011;9688;51.906;8.376;2023-06-04T09:14:07;1.85;;;1.75;;
19111;SDS011;9688;51.906;8.376;2023-06-04T09:16:56;4.40;;;1.98;;
19111;SDS011;9688;51.906;8.376;2023-06-04T09:19:43;2.10;;;2.00;;
19111;SDS011;9688;51.906;8.376;2023-06-04T09:22:32;4.72;;;2.22;;
19111;SDS011;9688;51.906;8.376;2023-06-04T09:25:19;2.33;;;1.92;;
19111;SDS011;9688;51.906;8.376;2023-06-04T09:28:06;3.28;;;2.15;;
19111;SDS011;9688;51.906;8.376;2023-06-04T09:30:55;5.07;;;2.25;;
19111;SDS011;9688;51.906;8.376;2023-06-04T09:33:51;2.75;;;2.10;;
19111;SDS011;9688;51.906;8.376;2023-06-04T09:36:37;2.72;;;2.28;;
19111;SDS011;9688;51.906;8.376;2023-06-04T09:39:23;4.30;;;3.55;;
19111;SDS011;9688;51.906;8.376;2023-06-04T09:42:09;3.08;;;2.30;;
19111;SDS011;9688;51.906;8.376;2023-06-04T09:44:55;7.32;;;3.45;;
19111;SDS011;9688;51.906;8.376;2023-06-04T09:47:43;4.35;;;3.47;;
19111;SDS011;9688;51.906;8.376;2023-06-04T09:50:31;6.65;;;3.83;;
19111;SDS011;9688;51.906;8.376;2023-06-04T09:53:21;6.43;;;4.05;;
19111;SDS011;9688;51.906;8.376;2023-06-04T09:56:10;3.58;;;1.90;;
19111;SDS011;9688;51.906;8.376;2023-06-04T09:58:58;7.00;;;2.65;;
19111;SDS011;9688;51.906;8.376;2023-06-04T10:01:45;3.20;;;2.43;;
19111;SDS011;9688;51.906;8.376;2023-06-04T10:04:32;6.30;;;2.28;;
19111;SDS011;9688;51.906;8.376;2023-06-04T10:07:22;2.72;;;2.53;;
19111;SDS011;9688;51.906;8.376;2023-06-04T10:10:10;2.38;;;2.25;;
19111;SDS011;9688;51.906;8.376;2023-06-04T10:13:00;2.37;;;2.00;;
19111;SDS011;9688;51.906;8.376;2023-06-04T10:15:50;2.63;;;2.40;;
19111;SDS011;9688;51.906;8.376;2023-06-04T10:18:36;4.53;;;2.40;;
19111;SDS011;9688;51.906;8.376;2023-06-04T10:21:24;3.50;;;2.22;;
19111;SDS011;9688;51.906;8.376;2023-06-04T10:24:13;2.47;;;2.20;;
19111;SDS011;9688;51.906;8.376;2023-06-04T10:27:01;2.53;;;2.33;;
19111;SDS011;9688;51.906;8.376;2023-06-04T10:29:54;3.00;;;2.58;;
19111;SDS011;9688;51.906;8.376;2023-06-04T10:32:40;5.70;;;2.40;;
19111;SDS011;9688;51.906;8.376;2023-06-04T10:35:29;3.83;;;2.40;;
19111;SDS011;9688;51.906;8.376;2023-06-04T10:38:16;3.08;;;2.60;;
19111;SDS011;9688;51.906;8.376;2023-06-04T10:41:13;3.40;;;2.70;;
19111;SDS011;9688;51.906;8.376;2023-06-04T10:44:00;1.85;;;1.70;;
19111;SDS011;9688;51.906;8.376;2023-06-04T10:46:47;2.28;;;1.83;;
19111;SDS011;9688;51.906;8.376;2023-06-04T10:49:33;4.65;;;1.95;;
19111;SDS011;9688;51.906;8.376;2023-06-04T10:52:20;3.30;;;1.95;;
19111;SDS011;9688;51.906;8.376;2023-06-04T10:55:08;2.65;;;1.60;;
19111;SDS011;9688;51.906;8.376;2023-06-04T10:57:59;4.35;;;2.05;;
19111;SDS011;9688;51.906;8.376;2023-06-04T11:00:48;2.00;;;1.90;;
19111;SDS011;9688;51.906;8.376;2023-06-04T11:03:38;2.03;;;1.90;;
19111;SDS011;9688;51.906;8.376;2023-06-04T11:06:27;2.70;;;1.80;;
19111;SDS011;9688;51.906;8.376;2023-06-04T11:09:18;2.08;;;1.90;;
19111;SDS011;9688;51.906;8.376;2023-06-04T11:12:05;3.50;;;2.10;;
19111;SDS011;9688;51.906;8.376;2023-06-04T11:14:57;2.65;;;1.80;;
19111;SDS011;9688;51.906;8.376;2023-06-04T11:17:50;3.38;;;1.92;;
19111;SDS011;9688;51.906;8.376;2023-06-04T11:20:41;2.85;;;1.58;;
19111;SDS011;9688;51.906;8.376;2023-06-04T11:23:29;2.35;;;2.10;;
19111;SDS011;9688;51.906;8.376;2023-06-04T11:26:16;2.28;;;1.88;;
19111;SDS011;9688;51.906;8.376;2023-06-04T11:29:06;2.47;;;1.90;;
19111;SDS011;9688;51.906;8.376;2023-06-04T11:31:55;3.28;;;1.90;;
19111;SDS011;9688;51.906;8.376;2023-06-04T11:34:42;4.85;;;2.90;;
19111;SDS011;9688;51.906;8.376;2023-06-04T11:37:28;4.47;;;2.22;;
19111;SDS011;9688;51.906;8.376;2023-06-04T11:40:16;2.72;;;2.28;;
19111;SDS011;9688;51.906;8.376;2023-06-04T11:43:04;6.13;;;2.80;;
19111;SDS011;9688;51.906;8.376;2023-06-04T11:45:51;1.67;;;1.58;;
19111;SDS011;9688;51.906;8.376;2023-06-04T11:48:41;3.25;;;1.80;;
19111;SDS011;9688;51.906;8.376;2023-06-04T11:51:28;1.85;;;1.75;;
19111;SDS011;9688;51.906;8.376;2023-06-04T11:54:14;2.53;;;2.30;;
19111;SDS011;9688;51.906;8.376;2023-06-04T11:57:01;4.90;;;2.05;;
19111;SDS011;9688;51.906;8.376;2023-06-04T11:59:49;1.90;;;1.80;;
19111;SDS011;9688;51.906;8.376;2023-06-04T12:02:34;1.90;;;1.77;;
19111;SDS011;9688;51.906;8.376;2023-06-04T12:05:23;3.03;;;1.98;;
19111;SDS011;9688;51.906;8.376;2023-06-04T12:08:16;3.67;;;1.90;;
19111;SDS011;9688;51.906;8.376;2023-06-04T12:11:01;3.35;;;2.00;;
19111;SDS011;9688;51.906;8.376;2023-06-04T12:13:47;2.60;;;1.95;;
19111;SDS011;9688;51.906;8.376;2023-06-04T12:16:34;4.00;;;1.85;;
19111;SDS011;9688;51.906;8.376;2023-06-04T12:19:19;3.10;;;1.90;;
19111;SDS011;9688;51.906;8.376;2023-06-04T12:22:07;1.80;;;1.70;;
19111;SDS011;9688;51.906;8.376;2023-06-04T12:24:53;3.60;;;2.35;;
19111;SDS011;9688;51.906;8.376;2023-06-04T12:27:46;2.33;;;1.90;;
19111;SDS011;9688;51.906;8.376;2023-06-04T12:30:36;1.88;;;1.65;;
19111;SDS011;9688;51.906;8.376;2023-06-04T12:33:24;2.13;;;2.03;;
19111;SDS011;9688;51.906;8.376;2023-06-04T12:36:10;1.80;;;1.60;;
19111;SDS011;9688;51.906;8.376;2023-06-04T12:38:58;4.50;;;1.70;;
19111;SDS011;9688;51.906;8.376;2023-06-04T12:41:45;2.33;;;1.60;;
19111;SDS011;9688;51.906;8.376;2023-06-04T12:44:35;1.90;;;1.80;;
19111;SDS011;9688;51.906;8.376;2023-06-04T12:47:20;3.45;;;1.83;;
19111;SDS011;9688;51.906;8.376;2023-06-04T12:50:07;3.47;;;3.10;;
19111;SDS011;9688;51.906;8.376;2023-06-04T12:52:54;5.88;;;3.05;;
19111;SDS011;9688;51.906;8.376;2023-06-04T12:55:41;1.92;;;1.77;;
19111;SDS011;9688;51.906;8.376;2023-06-04T12:58:28;1.73;;;1.63;;
19111;SDS011;9688;51.906;8.376;2023-06-04T13:01:14;3.47;;;1.60;;
19111;SDS011;9688;51.906;8.376;2023-06-04T13:04:05;2.00;;;1.80;;
19111;SDS011;9688;51.906;8.376;2023-06-04T13:06:51;2.95;;;1.85;;
19111;SDS011;9688;51.906;8.376;2023-06-04T13:09:42;1.73;;;1.40;;
19111;SDS011;9688;51.906;8.376;2023-06-04T13:12:31;9.43;;;4.88;;
19111;SDS011;9688;51.906;8.376;2023-06-04T13:15:17;2.63;;;1.65;;
19111;SDS011;9688;51.906;8.376;2023-06-04T13:18:04;1.70;;;1.40;;
19111;SDS011;9688;51.906;8.376;2023-06-04T13:20:51;3.55;;;2.08;;
19111;SDS011;9688;51.906;8.376;2023-06-04T13:23:39;3.83;;;2.45;;
19111;SDS011;9688;51.906;8.376;2023-06-04T13:26:26;2.78;;;2.10;;
19111;SDS011;9688;51.906;8.376;2023-06-04T13:29:13;2.05;;;1.77;;
19111;SDS011;9688;51.906;8.376;2023-06-04T13:32:00;2.00;;;1.60;;
19111;SDS011;9688;51.906;8.376;2023-06-04T13:34:46;7.13;;;1.60;;
19111;SDS011;9688;51.906;8.376;2023-06-04T13:37:33;2.05;;;1.85;;
19111;SDS011;9688;51.906;8.376;2023-06-04T13:40:18;2.58;;;1.92;;
19111;SDS011;9688;51.906;8.376;2023-06-04T13:43:05;1.98;;;1.40;;
19111;SDS011;9688;51.906;8.376;2023-06-04T13:45:54;3.45;;;1.50;;
19111;SDS011;9688;51.906;8.376;2023-06-04T13:48:41;2.00;;;1.80;;
19111;SDS011;9688;51.906;8.376;2023-06-04T13:51:27;1.80;;;1.60;;
19111;SDS011;9688;51.906;8.376;2023-06-04T13:54:14;2.33;;;1.60;;
19111;SDS011;9688;51.906;8.376;2023-06-04T13:57:01;1.70;;;1.60;;
19111;SDS011;9688;51.906;8.376;2023-06-04T13:59:49;2.08;;;1.85;;
19111;SDS011;9688;51.906;8.376;2023-06-04T14:02:37;3.20;;;2.40;;
19111;SDS011;9688;51.906;8.376;2023-06-04T14:05:25;1.85;;;1.75;;
19111;SDS011;9688;51.906;8.376;2023-06-04T14:08:12;3.08;;;1.60;;
19111;SDS011;9688;51.906;8.376;2023-06-04T14:10:58;3.13;;;1.85;;
19111;SDS011;9688;51.906;8.376;2023-06-04T14:13:44;2.70;;;1.50;;
19111;SDS011;9688;51.906;8.376;2023-06-04T14:16:30;2.58;;;1.90;;
19111;SDS011;9688;51.906;8.376;2023-06-04T14:19:19;2.55;;;2.20;;
19111;SDS011;9688;51.906;8.376;2023-06-04T14:22:09;4.13;;;1.92;;
19111;SDS011;9688;51.906;8.376;2023-06-04T14:24:57;1.77;;;1.67;;
19111;SDS011;9688;51.906;8.376;2023-06-04T14:27:45;3.15;;;1.33;;
19111;SDS011;9688;51.906;8.376;2023-06-04T14:30:31;1.92;;;1.80;;
19111;SDS011;9688;51.906;8.376;2023-06-04T14:33:17;4.78;;;1.95;;
19111;SDS011;9688;51.906;8.376;2023-06-04T14:36:05;1.98;;;1.88;;
19111;SDS011;9688;51.906;8.376;2023-06-04T14:38:53;3.15;;;1.35;;
19111;SDS011;9688;51.906;8.376;2023-06-04T14:41:39;2.35;;;1.50;;
19111;SDS011;9688;51.906;8.376;2023-06-04T14:44:26;3.10;;;1.65;;
19111;SDS011;9688;51.906;8.376;2023-06-04T14:47:16;1.85;;;1.70;;
19111;SDS011;9688;51.906;8.376;2023-06-04T14:50:02;3.38;;;1.75;;
19111;SDS011;9688;51.906;8.376;2023-06-04T14:52:50;1.88;;;1.50;;
19111;SDS011;9688;51.906;8.376;2023-06-04T14:55:36;3.55;;;2.22;;
19111;SDS011;9688;51.906;8.376;2023-06-04T14:58:26;2.17;;;1.90;;
19111;SDS011;9688;51.906;8.376;2023-06-04T15:01:12;4.40;;;2.15;;
19111;SDS011;9688;51.906;8.376;2023-06-04T15:03:57;2.47;;;1.85;;
19111;SDS011;9688;51.906;8.376;2023-06-04T15:06:43;2.20;;;1.45;;
19111;SDS011;9688;51.906;8.376;2023-06-04T15:09:31;2.00;;;1.52;;
19111;SDS011;9688;51.906;8.376;2023-06-04T15:12:18;1.95;;;1.50;;
19111;SDS011;9688;51.906;8.376;2023-06-04T15:15:04;3.60;;;1.90;;
19111;SDS011;9688;51.906;8.376;2023-06-04T15:17:52;1.77;;;1.67;;
19111;SDS011;9688;51.906;8.376;2023-06-04T15:20:42;1.60;;;1.50;;
19111;SDS011;9688;51.906;8.376;2023-06-04T15:23:28;3.83;;;2.40;;
19111;SDS011;9688;51.906;8.376;2023-06-04T15:26:18;2.17;;;1.95;;
19111;SDS011;9688;51.906;8.376;2023-06-04T15:29:05;2.40;;;2.13;;
19111;SDS011;9688;51.906;8.376;2023-06-04T15:31:54;3.00;;;2.65;;
19111;SDS011;9688;51.906;8.376;2023-06-04T15:34:40;2.50;;;1.60;;
19111;SDS011;9688;51.906;8.376;2023-06-04T15:37:26;1.73;;;1.58;;
19111;SDS011;9688;51.906;8.376;2023-06-04T15:40:15;2.00;;;1.80;;
19111;SDS011;9688;51.906;8.376;2023-06-04T15:43:02;4.85;;;2.78;;
19111;SDS011;9688;51.906;8.376;2023-06-04T15:45:48;2.63;;;2.42;;
19111;SDS011;9688;51.906;8.376;2023-06-04T15:48:35;4.55;;;2.95;;
19111;SDS011;9688;51.906;8.376;2023-06-04T15:51:20;3.72;;;3.40;;
19111;SDS011;9688;51.906;8.376;2023-06-04T15:54:08;2.63;;;1.80;;
19111;SDS011;9688;51.906;8.376;2023-06-04T15:56:54;2.03;;;1.92;;
19111;SDS011;9688;51.906;8.376;2023-06-04T15:59:42;7.13;;;4.50;;
19111;SDS011;9688;51.906;8.376;2023-06-04T16:02:28;10.20;;;5.97;;
19111;SDS011;9688;51.906;8.376;2023-06-04T16:05:15;2.75;;;2.17;;
19111;SDS011;9688;51.906;8.376;2023-06-04T16:08:01;3.20;;;2.90;;
19111;SDS011;9688;51.906;8.376;2023-06-04T16:10:47;3.25;;;2.25;;
19111;SDS011;9688;51.906;8.376;2023-06-04T16:13:33;3.45;;;2.38;;
19111;SDS011;9688;51.906;8.376;2023-06-04T16:16:21;1.88;;;1.30;;
19111;SDS011;9688;51.906;8.376;2023-06-04T16:19:07;3.85;;;1.40;;
19111;SDS011;9688;51.906;8.376;2023-06-04T16:21:55;3.33;;;2.13;;
19111;SDS011;9688;51.906;8.376;2023-06-04T16:24:41;1.40;;;1.30;;
19111;SDS011;9688;51.906;8.376;2023-06-04T16:27:27;3.30;;;1.83;;
19111;SDS011;9688;51.906;8.376;2023-06-04T16:30:14;1.83;;;1.73;;
19111;SDS011;9688;51.906;8.376;2023-06-04T16:33:04;1.70;;;1.60;;
19111;SDS011;9688;51.906;8.376;2023-06-04T16:35:50;2.17;;;1.65;;
19111;SDS011;9688;51.906;8.376;2023-06-04T16:38:36;1.52;;;1.42;;
19111;SDS011;9688;51.906;8.376;2023-06-04T16:41:22;1.40;;;1.30;;
19111;SDS011;9688;51.906;8.376;2023-06-04T16:44:09;2.42;;;1.70;;
19111;SDS011;9688;51.906;8.376;2023-06-04T16:46:55;1.60;;;1.50;;
19111;SDS011;9688;51.906;8.376;2023-06-04T16:49:43;2.85;;;2.22;;
19111;SDS011;9688;51.906;8.376;2023-06-04T16:52:29;2.95;;;1.92;;
19111;SDS011;9688;51.906;8.376;2023-06-04T16:55:17;2.70;;;2.45;;
19111;SDS011;9688;51.906;8.376;2023-06-04T16:58:04;6.68;;;3.40;;
19111;SDS011;9688;51.906;8.376;2023-06-04T17:00:50;2.00;;;1.88;;